createdAt,value
2019-01-20T00:03:19.963Z,4.72
2019-01-20T00:08:24.046Z,4.74
2019-01-20T00:13:28.052Z,4.66
2019-01-20T00:18:32.171Z,4.68
2019-01-20T00:23:36.766Z,4.81
2019-01-20T00:28:41.848Z,4.75
2019-01-20T00:33:46.115Z,4.60
2019-01-20T00:38:50.024Z,4.73
2019-01-20T00:43:54.194Z,4.72
2019-01-20T00:48:58.141Z,4.73
2019-01-20T00:54:02.643Z,4.71
2019-01-20T00:59:06.891Z,4.74
2019-01-20T01:04:10.853Z,4.66
2019-01-20T01:09:14.847Z,4.69
2019-01-20T01:14:18.908Z,4.69
2019-01-20T01:19:23.010Z,4.75
2019-01-20T01:24:27.088Z,4.74
2019-01-20T01:29:31.734Z,4.81
2019-01-20T01:34:35.792Z,4.87
2019-01-20T01:39:40.086Z,4.75
2019-01-20T01:44:44.517Z,4.79
2019-01-20T01:49:48.572Z,4.77
2019-01-20T01:54:53.374Z,4.67
2019-01-20T01:59:58.935Z,4.80
2019-01-20T02:05:03.162Z,4.75
2019-01-20T02:10:09.755Z,4.72
2019-01-20T02:15:16.360Z,4.67
2019-01-20T02:20:22.520Z,4.74
2019-01-20T02:25:26.434Z,4.72
2019-01-20T02:30:30.746Z,4.79
2019-01-20T02:35:36.054Z,4.81
2019-01-20T02:40:40.505Z,4.83
2019-01-20T02:45:44.874Z,4.88
2019-01-20T02:50:48.901Z,4.99
2019-01-20T02:55:53.958Z,4.91
2019-01-20T03:00:57.991Z,4.99
2019-01-20T03:06:02.136Z,5.01
2019-01-20T03:11:06.264Z,4.93
2019-01-20T03:16:10.246Z,4.91
2019-01-20T03:21:14.469Z,4.95
2019-01-20T03:26:18.444Z,4.81
2019-01-20T03:31:22.594Z,4.88
2019-01-20T03:36:27.301Z,4.89
2019-01-20T03:41:31.720Z,4.85
2019-01-20T03:46:36.211Z,4.96
2019-01-20T03:51:40.350Z,4.87
2019-01-20T03:56:45.078Z,4.85
2019-01-20T04:01:49.684Z,4.84
2019-01-20T04:06:53.650Z,5.07
2019-01-20T04:11:57.764Z,5.08
2019-01-20T04:17:03.549Z,5.12
2019-01-20T04:22:08.204Z,5.12
2019-01-20T04:27:12.260Z,5.19
2019-01-20T04:32:16.322Z,5.13
2019-01-20T04:37:20.429Z,5.15
2019-01-20T04:42:29.204Z,5.14
2019-01-20T04:47:30.708Z,5.27
2019-01-20T04:52:35.268Z,5.25
2019-01-20T04:57:42.638Z,5.26
2019-01-20T05:02:46.712Z,5.31
2019-01-20T05:07:51.126Z,5.24
2019-01-20T05:12:55.338Z,5.17
2019-01-20T05:17:59.464Z,5.21
2019-01-20T05:23:05.051Z,5.24
2019-01-20T05:28:09.340Z,5.22
2019-01-20T05:33:13.343Z,5.22
2019-01-20T05:38:18.195Z,5.22
2019-01-20T05:43:22.215Z,5.14
2019-01-20T05:48:26.430Z,5.06
2019-01-20T05:53:30.470Z,5.12
2019-01-20T05:58:35.666Z,5.05
2019-01-20T06:03:39.551Z,5.07
2019-01-20T06:08:43.518Z,5.01
2019-01-20T06:13:48.302Z,4.98
2019-01-20T06:18:53.052Z,5.11
2019-01-20T06:23:57.064Z,5.09
2019-01-20T06:29:02.010Z,5.04
2019-01-20T06:34:06.698Z,5.19
2019-01-20T06:39:12.035Z,5.11
2019-01-20T06:44:16.018Z,5.05
2019-01-20T06:49:20.199Z,5.02
2019-01-20T06:54:24.125Z,5.19
2019-01-20T06:59:28.886Z,5.25
2019-01-20T07:04:33.036Z,5.28
2019-01-20T07:09:37.070Z,5.23
2019-01-20T07:14:43.218Z,5.16
2019-01-20T07:19:48.103Z,5.31
2019-01-20T07:24:52.404Z,5.22
2019-01-20T07:29:57.852Z,5.16
2019-01-20T07:35:02.788Z,5.26
2019-01-20T07:40:11.659Z,5.15
2019-01-20T07:45:18.141Z,5.08
2019-01-20T07:50:25.108Z,5.13
2019-01-20T07:55:29.203Z,5.05
2019-01-20T08:00:35.117Z,4.98
2019-01-20T08:05:39.405Z,5.08
2019-01-20T08:10:43.365Z,5.01
2019-01-20T08:15:48.961Z,5.12
2019-01-20T08:20:53.973Z,5.13
2019-01-20T08:25:59.544Z,5.34
2019-01-20T08:31:15.724Z,5.22
2019-01-20T08:36:23.497Z,5.23
2019-01-20T08:41:30.177Z,5.33
2019-01-20T08:47:00.221Z,5.22
2019-01-20T08:52:14.132Z,5.19
2019-01-20T08:57:21.156Z,5.28
2019-01-20T09:02:29.511Z,5.37
2019-01-20T09:07:36.860Z,5.42
2019-01-20T09:12:43.648Z,5.37
2019-01-20T09:17:48.104Z,5.50
2019-01-20T09:22:52.180Z,5.47
2019-01-20T09:27:56.862Z,5.52
2019-01-20T09:33:04.437Z,5.65
2019-01-20T09:38:09.229Z,5.80
2019-01-20T09:43:18.778Z,5.79
2019-01-20T09:48:23.563Z,5.88
2019-01-20T09:53:35.099Z,5.82
2019-01-20T09:58:39.233Z,5.80
2019-01-20T10:03:43.938Z,5.82
2019-01-20T10:08:49.365Z,5.86
2019-01-20T10:13:54.964Z,5.83
2019-01-20T10:19:00.169Z,5.85
2019-01-20T10:24:06.432Z,5.94
2019-01-20T10:29:11.378Z,5.93
2019-01-20T10:34:16.461Z,6.03
2019-01-20T10:39:24.317Z,6.13
2019-01-20T10:44:31.652Z,6.02
2019-01-20T10:49:38.073Z,5.90
2019-01-20T10:54:46.199Z,5.98
2019-01-20T10:59:50.912Z,5.92
2019-01-20T11:05:03.509Z,5.96
2019-01-20T11:10:09.184Z,6.04
2019-01-20T11:15:17.193Z,6.00
2019-01-20T11:20:23.799Z,6.05
2019-01-20T11:25:32.464Z,6.10
2019-01-20T11:30:45.044Z,6.06
2019-01-20T11:35:54.329Z,6.13
2019-01-20T11:40:59.603Z,6.24
2019-01-20T11:46:05.154Z,6.35
2019-01-20T11:51:17.219Z,6.39
2019-01-20T11:56:28.025Z,6.26
2019-01-20T12:01:34.682Z,6.31
2019-01-20T12:06:45.012Z,6.35
2019-01-20T12:12:19.217Z,6.40
2019-01-20T12:17:34.589Z,6.45
2019-01-20T12:22:58.475Z,6.34
2019-01-20T12:28:14.461Z,6.43
2019-01-20T12:33:30.250Z,6.38
2019-01-20T12:38:52.352Z,6.52
2019-01-20T12:44:31.358Z,6.65
2019-01-20T12:49:46.480Z,6.76
2019-01-20T12:55:28.782Z,6.71
2019-01-20T13:00:56.737Z,6.70
2019-01-20T13:06:26.124Z,6.59
2019-01-20T13:11:49.247Z,6.73
2019-01-20T13:17:20.394Z,6.77
2019-01-20T13:22:48.389Z,6.80
2019-01-20T13:28:32.089Z,6.96
2019-01-20T13:33:51.934Z,7.13
2019-01-20T13:39:13.119Z,7.22
2019-01-20T13:44:25.285Z,7.20
2019-01-20T13:49:32.479Z,7.16
2019-01-20T13:54:45.079Z,7.16
2019-01-20T13:59:50.816Z,7.11
2019-01-20T14:04:57.425Z,7.03
2019-01-20T14:10:01.902Z,7.05
2019-01-20T14:15:10.395Z,7.06
2019-01-20T14:20:35.706Z,7.13
2019-01-20T14:26:07.465Z,7.13
2019-01-20T14:31:25.908Z,7.22
2019-01-20T14:36:45.941Z,7.24
2019-01-20T14:47:47.653Z,7.42
2019-01-20T14:52:58.830Z,7.48
2019-01-20T14:58:30.097Z,7.34
2019-01-20T15:04:18.718Z,7.30
2019-01-20T15:09:30.774Z,7.28
2019-01-20T15:14:37.623Z,7.10
2019-01-20T15:20:00.662Z,7.00
2019-01-20T15:25:19.025Z,6.98
2019-01-20T15:30:29.584Z,6.98
2019-01-20T15:35:34.438Z,6.88
2019-01-20T15:40:38.555Z,6.75
2019-01-20T15:45:43.174Z,6.69
2019-01-20T15:50:47.192Z,6.83
2019-01-20T15:55:51.344Z,6.76
2019-01-20T16:00:57.033Z,6.73
2019-01-20T16:06:01.140Z,6.65
2019-01-20T16:11:07.723Z,6.58
2019-01-20T16:16:12.994Z,6.61
2019-01-20T16:21:18.082Z,6.55
2019-01-20T16:26:26.212Z,6.59
2019-01-20T16:31:40.920Z,6.57
2019-01-20T16:36:46.827Z,6.38
2019-01-20T16:41:51.458Z,6.48
2019-01-20T16:46:58.240Z,6.55
2019-01-20T16:52:03.745Z,6.61
2019-01-20T16:57:09.069Z,6.58
2019-01-20T17:02:13.284Z,6.64
2019-01-20T17:07:17.657Z,6.59
2019-01-20T17:12:22.188Z,6.71
2019-01-20T17:17:29.464Z,6.77
2019-01-20T17:22:34.019Z,6.73
2019-01-20T17:27:38.674Z,6.78
2019-01-20T17:32:43.545Z,6.60
2019-01-20T17:37:48.074Z,6.52
2019-01-20T17:42:52.413Z,6.36
2019-01-20T17:47:57.220Z,6.23
2019-01-20T17:53:01.482Z,6.25
2019-01-20T17:58:07.002Z,6.33
2019-01-20T18:03:12.582Z,6.48
2019-01-20T18:08:16.795Z,6.51
2019-01-20T18:13:21.951Z,6.57
2019-01-20T18:18:26.435Z,6.69
2019-01-20T18:23:30.851Z,6.73
2019-01-20T18:28:35.251Z,6.74
2019-01-20T18:33:40.232Z,6.68
2019-01-20T18:38:44.713Z,6.65
2019-01-20T18:43:48.991Z,6.56
2019-01-20T18:48:53.598Z,6.43
2019-01-20T18:53:57.732Z,6.32
2019-01-20T18:59:02.201Z,6.27
2019-01-20T19:04:06.505Z,6.37
2019-01-20T19:09:12.601Z,6.40
2019-01-20T19:14:16.656Z,6.64
2019-01-20T19:19:21.878Z,6.68
2019-01-20T19:24:27.305Z,6.50
2019-01-20T19:29:31.709Z,6.43
2019-01-20T19:34:36.844Z,6.26
2019-01-20T19:39:40.967Z,6.25
2019-01-20T19:44:45.883Z,6.15
2019-01-20T19:49:53.100Z,6.16
2019-01-20T19:55:01.996Z,6.31
2019-01-20T20:00:13.339Z,6.28
2019-01-20T20:05:20.613Z,6.48
2019-01-20T20:10:28.211Z,6.57
2019-01-20T20:15:32.341Z,6.70
2019-01-20T20:20:38.544Z,6.68
2019-01-20T20:25:43.409Z,6.43
2019-01-20T20:30:47.799Z,6.42
2019-01-20T20:35:51.978Z,6.45
2019-01-20T20:40:55.884Z,6.48
2019-01-20T20:45:59.980Z,6.62
2019-01-20T20:51:04.973Z,6.76
2019-01-20T20:56:09.573Z,6.82
2019-01-20T21:01:15.228Z,6.86
2019-01-20T21:06:21.595Z,6.73
2019-01-20T21:11:26.852Z,6.71
2019-01-20T21:16:37.854Z,6.58
2019-01-20T21:21:37.910Z,6.54
2019-01-20T21:26:44.449Z,6.57
2019-01-20T21:31:48.906Z,6.37
2019-01-20T21:36:53.091Z,6.37
2019-01-20T21:41:57.309Z,6.32
2019-01-20T21:47:01.761Z,6.33
2019-01-20T21:52:05.891Z,6.20
2019-01-20T21:57:11.374Z,6.20
2019-01-20T22:02:15.399Z,6.24
2019-01-20T22:07:19.422Z,6.17
2019-01-20T22:12:23.362Z,6.27
2019-01-20T22:17:27.615Z,6.31
2019-01-20T22:22:31.561Z,6.30
2019-01-20T22:27:36.379Z,6.29
2019-01-20T22:32:40.304Z,6.06
2019-01-20T22:37:44.996Z,6.07
2019-01-20T22:42:49.239Z,6.07
2019-01-20T22:47:53.419Z,6.08
2019-01-20T22:52:57.907Z,5.91
2019-01-20T22:58:03.222Z,5.80
2019-01-20T23:03:07.574Z,5.86
2019-01-20T23:08:11.556Z,5.82
2019-01-20T23:13:15.790Z,5.77
2019-01-20T23:18:19.750Z,5.61
2019-01-20T23:23:23.941Z,5.40
2019-01-20T23:28:28.833Z,5.18
2019-01-20T23:33:32.878Z,5.02
2019-01-20T23:38:36.831Z,4.81
2019-01-20T23:43:40.860Z,4.66
2019-01-20T23:48:45.058Z,4.54
2019-01-20T23:53:48.990Z,4.49
2019-01-20T23:58:53.050Z,4.46
